createdAt,value
2019-02-21T00:00:05.621Z,11.27
2019-02-21T00:02:34.555Z,12.27
2019-02-21T00:05:04.269Z,14.60
2019-02-21T00:07:33.327Z,13.63
2019-02-21T00:10:02.376Z,14.17
2019-02-21T00:12:31.359Z,16.63
2019-02-21T00:15:00.341Z,14.57
2019-02-21T00:17:30.549Z,14.60
2019-02-21T00:19:59.578Z,15.53
2019-02-21T00:22:28.581Z,14.57
2019-02-21T00:24:57.630Z,15.73
2019-02-21T00:27:26.686Z,12.13
2019-02-21T00:29:55.700Z,14.10
2019-02-21T00:32:24.694Z,13.67
2019-02-21T00:34:53.666Z,12.77
2019-02-21T00:37:22.641Z,16.37
2019-02-21T00:39:51.628Z,14.30
2019-02-21T00:42:20.672Z,11.67
2019-02-21T00:44:49.725Z,14.20
2019-02-21T00:47:18.717Z,15.30
2019-02-21T00:49:47.774Z,13.10
2019-02-21T00:52:16.784Z,14.67
2019-02-21T00:54:45.891Z,13.47
2019-02-21T00:57:14.891Z,14.97
2019-02-21T00:59:43.882Z,17.77
2019-02-21T01:02:12.857Z,14.20
2019-02-21T01:04:41.897Z,16.90
2019-02-21T01:07:10.955Z,16.07
2019-02-21T01:09:39.970Z,16.23
2019-02-21T01:12:09.038Z,14.73
2019-02-21T01:14:37.995Z,13.00
2019-02-21T01:17:06.966Z,12.23
2019-02-21T01:19:35.999Z,16.37
2019-02-21T01:22:05.178Z,18.73
2019-02-21T01:24:34.307Z,15.60
2019-02-21T01:27:03.325Z,17.73
2019-02-21T01:29:32.387Z,13.70
2019-02-21T01:32:01.478Z,15.03
2019-02-21T01:34:30.524Z,13.40
2019-02-21T01:36:59.586Z,18.03
2019-02-21T01:39:28.596Z,13.47
2019-02-21T01:41:57.568Z,13.33
2019-02-21T01:44:26.540Z,18.30
2019-02-21T01:46:55.610Z,14.77
2019-02-21T01:49:24.654Z,16.17
2019-02-21T01:51:53.797Z,15.73
2019-02-21T01:54:22.848Z,14.77
2019-02-21T01:56:51.876Z,17.10
2019-02-21T01:59:20.958Z,17.10
2019-02-21T02:01:49.969Z,14.27
2019-02-21T02:04:18.970Z,17.23
2019-02-21T02:06:48.098Z,12.23
2019-02-21T02:09:17.130Z,14.50
2019-02-21T02:11:46.191Z,13.40
2019-02-21T02:14:15.261Z,13.80
2019-02-21T02:16:46.374Z,14.20
2019-02-21T02:19:15.404Z,15.00
2019-02-21T02:21:44.461Z,14.57
2019-02-21T02:24:14.855Z,14.87
2019-02-21T02:26:44.007Z,15.77
2019-02-21T02:29:12.993Z,17.93
2019-02-21T02:31:42.166Z,19.63
2019-02-21T02:34:11.193Z,16.63
2019-02-21T02:36:40.286Z,14.43
2019-02-21T02:39:09.439Z,14.37
2019-02-21T02:41:38.476Z,18.90
2019-02-21T02:44:07.541Z,16.83
2019-02-21T02:46:36.570Z,13.07
2019-02-21T02:49:05.620Z,17.17
2019-02-21T02:51:34.692Z,14.57
2019-02-21T02:54:03.735Z,19.10
2019-02-21T02:56:32.783Z,16.07
2019-02-21T02:59:01.860Z,16.90
2019-02-21T03:01:34.852Z,13.60
2019-02-21T03:04:01.678Z,15.87
2019-02-21T03:06:30.768Z,21.13
2019-02-21T03:08:59.784Z,19.63
2019-02-21T03:11:28.787Z,16.20
2019-02-21T03:13:57.928Z,19.70
2019-02-21T03:16:26.942Z,15.70
2019-02-21T03:18:55.945Z,17.77
2019-02-21T03:21:25.013Z,15.33
2019-02-21T03:23:54.068Z,16.17
2019-02-21T03:26:23.145Z,19.20
2019-02-21T03:28:52.198Z,19.63
2019-02-21T03:31:21.273Z,17.57
2019-02-21T03:33:50.353Z,18.90
2019-02-21T03:36:19.421Z,16.40
2019-02-21T03:38:48.498Z,17.97
2019-02-21T03:41:17.566Z,17.43
2019-02-21T03:43:46.598Z,17.17
2019-02-21T03:46:15.658Z,15.23
2019-02-21T03:48:44.633Z,18.03
2019-02-21T03:51:32.867Z,18.67
2019-02-21T03:54:01.863Z,19.43
2019-02-21T03:56:30.840Z,17.77
2019-02-21T03:58:59.886Z,17.93
2019-02-21T04:01:28.900Z,19.80
2019-02-21T04:03:57.886Z,19.27
2019-02-21T04:06:26.890Z,21.27
2019-02-21T04:08:55.900Z,19.23
2019-02-21T04:11:24.969Z,21.17
2019-02-21T04:13:54.107Z,17.30
2019-02-21T04:16:23.135Z,21.63
2019-02-21T04:18:52.092Z,21.90
2019-02-21T04:21:21.092Z,17.23
2019-02-21T04:24:09.313Z,20.23
2019-02-21T04:26:38.263Z,20.33
2019-02-21T04:29:07.271Z,20.20
2019-02-21T04:31:36.403Z,20.10
2019-02-21T04:34:06.850Z,22.23
2019-02-21T04:36:36.023Z,22.70
2019-02-21T04:39:05.327Z,20.57
2019-02-21T04:41:34.331Z,21.33
2019-02-21T04:44:04.098Z,22.70
2019-02-21T04:46:33.219Z,21.20
2019-02-21T04:49:02.236Z,22.77
2019-02-21T04:51:31.261Z,20.47
2019-02-21T04:54:00.312Z,23.60
2019-02-21T04:56:29.388Z,20.63
2019-02-21T04:58:58.445Z,19.97
2019-02-21T05:01:27.513Z,22.90
2019-02-21T05:03:56.586Z,19.50
2019-02-21T05:06:25.653Z,22.57
2019-02-21T05:08:54.668Z,22.87
2019-02-21T05:11:23.745Z,23.23
2019-02-21T05:13:52.807Z,23.20
2019-02-21T05:16:21.869Z,21.40
2019-02-21T05:18:50.927Z,23.90
2019-02-21T05:21:19.957Z,20.93
2019-02-21T05:23:48.981Z,24.40
2019-02-21T05:26:23.039Z,23.90
2019-02-21T05:28:53.113Z,24.63
2019-02-21T05:31:34.043Z,22.87
2019-02-21T05:34:10.914Z,21.83
2019-02-21T05:37:01.907Z,25.53
2019-02-21T05:39:55.966Z,21.83
2019-02-21T05:42:47.863Z,22.10
2019-02-21T05:45:36.513Z,24.63
2019-02-21T05:48:24.649Z,24.30
2019-02-21T05:51:27.709Z,21.97
2019-02-21T05:54:14.566Z,27.00
2019-02-21T05:56:55.406Z,21.33
2019-02-21T05:59:42.166Z,22.27
2019-02-21T06:02:26.925Z,25.13
2019-02-21T06:05:34.151Z,25.83
2019-02-21T06:08:16.005Z,26.47
2019-02-21T06:10:54.409Z,29.40
2019-02-21T06:13:45.329Z,30.23
2019-02-21T06:16:27.527Z,24.93
2019-02-21T06:19:34.791Z,26.00
2019-02-21T06:22:21.457Z,29.13
2019-02-21T06:24:56.122Z,24.53
2019-02-21T06:27:50.263Z,26.00
2019-02-21T06:30:24.037Z,27.63
2019-02-21T06:33:04.087Z,28.67
2019-02-21T06:35:23.834Z,30.63
2019-02-21T06:37:52.900Z,30.40
2019-02-21T06:40:22.010Z,29.03
2019-02-21T06:42:51.016Z,34.07
2019-02-21T06:45:20.069Z,30.80
2019-02-21T06:47:49.110Z,27.27
2019-02-21T06:50:26.490Z,29.97
2019-02-21T06:52:48.973Z,27.70
2019-02-21T06:55:20.456Z,28.70
2019-02-21T06:57:48.811Z,31.23
2019-02-21T07:00:17.822Z,33.80
2019-02-21T07:02:46.830Z,30.80
2019-02-21T07:05:15.892Z,28.87
2019-02-21T07:07:44.962Z,30.67
2019-02-21T07:10:13.918Z,32.30
2019-02-21T07:12:42.973Z,30.40
2019-02-21T07:15:12.059Z,29.37
2019-02-21T07:17:48.807Z,34.30
2019-02-21T07:20:12.961Z,31.63
2019-02-21T07:22:42.104Z,29.43
2019-02-21T07:25:27.508Z,34.70
2019-02-21T07:27:58.370Z,34.27
2019-02-21T07:30:27.399Z,32.83
2019-02-21T07:32:56.439Z,28.47
2019-02-21T07:35:25.515Z,39.37
2019-02-21T07:37:54.454Z,38.10
2019-02-21T07:40:23.469Z,34.40
2019-02-21T07:42:52.599Z,35.73
2019-02-21T07:45:21.668Z,34.93
2019-02-21T07:47:50.744Z,30.67
2019-02-21T07:50:19.826Z,33.13
2019-02-21T07:52:48.832Z,37.50
2019-02-21T07:55:17.827Z,36.23
2019-02-21T07:57:46.875Z,36.27
2019-02-21T08:00:15.886Z,34.80
2019-02-21T08:02:44.928Z,40.03
2019-02-21T08:05:13.930Z,31.73
2019-02-21T08:07:42.872Z,38.57
2019-02-21T08:10:11.953Z,36.33
2019-02-21T08:12:40.915Z,37.27
2019-02-21T08:15:11.923Z,38.70
2019-02-21T08:17:41.054Z,37.97
2019-02-21T08:20:11.008Z,33.53
2019-02-21T08:22:40.045Z,39.80
2019-02-21T08:25:09.736Z,34.60
2019-02-21T08:27:38.770Z,36.80
2019-02-21T08:30:10.389Z,37.70
2019-02-21T08:33:13.707Z,38.83
2019-02-21T08:35:42.830Z,34.60
2019-02-21T08:38:12.208Z,40.73
2019-02-21T08:40:41.409Z,36.73
2019-02-21T08:43:10.363Z,34.97
2019-02-21T08:45:39.353Z,35.40
2019-02-21T08:48:08.423Z,33.43
2019-02-21T08:50:37.460Z,35.87
2019-02-21T08:53:06.597Z,33.90
2019-02-21T08:55:35.634Z,38.53
2019-02-21T08:58:04.603Z,37.83
2019-02-21T09:00:33.624Z,36.90
2019-02-21T09:03:02.616Z,37.87
2019-02-21T09:05:31.631Z,35.77
2019-02-21T09:08:00.680Z,35.73
2019-02-21T09:10:29.761Z,38.53
2019-02-21T09:12:58.797Z,36.03
2019-02-21T09:15:27.854Z,41.17
2019-02-21T09:17:56.893Z,36.33
2019-02-21T09:20:25.905Z,35.03
2019-02-21T09:22:54.914Z,36.53
2019-02-21T09:25:23.929Z,38.17
2019-02-21T09:27:52.933Z,35.30
2019-02-21T09:30:21.950Z,33.90
2019-02-21T09:32:50.992Z,33.77
2019-02-21T09:35:19.991Z,31.40
2019-02-21T09:37:49.002Z,37.77
2019-02-21T09:40:18.019Z,32.80
2019-02-21T09:42:47.016Z,38.17
2019-02-21T09:45:16.999Z,32.83
2019-02-21T09:47:46.064Z,32.23
2019-02-21T09:50:15.146Z,36.87
2019-02-21T09:52:44.196Z,36.93
2019-02-21T09:55:13.950Z,33.33
2019-02-21T09:58:02.108Z,33.70
2019-02-21T10:00:31.194Z,37.53
2019-02-21T10:03:00.262Z,36.63
2019-02-21T10:05:29.402Z,33.30
2019-02-21T10:07:58.539Z,32.77
2019-02-21T10:10:27.554Z,31.87
2019-02-21T10:12:56.583Z,32.93
2019-02-21T10:15:25.565Z,35.60
2019-02-21T10:17:54.597Z,36.20
2019-02-21T10:20:23.593Z,29.47
2019-02-21T10:22:52.637Z,33.10
2019-02-21T10:25:23.953Z,36.07
2019-02-21T10:27:52.978Z,36.17
2019-02-21T10:30:22.295Z,36.10
2019-02-21T10:32:51.341Z,35.20
2019-02-21T10:35:20.346Z,37.77
2019-02-21T10:37:49.461Z,33.03
2019-02-21T10:40:18.558Z,31.77
2019-02-21T10:42:47.662Z,41.73
2019-02-21T10:45:17.803Z,36.73
2019-02-21T10:47:46.845Z,33.80
2019-02-21T10:50:17.438Z,37.70
2019-02-21T10:52:46.435Z,33.50
2019-02-21T10:55:15.645Z,35.20
2019-02-21T10:57:45.670Z,32.27
2019-02-21T11:00:22.852Z,35.13
2019-02-21T11:02:52.010Z,33.20
2019-02-21T11:05:22.414Z,32.10
2019-02-21T11:07:51.442Z,33.50
2019-02-21T11:10:22.398Z,31.87
2019-02-21T11:12:51.446Z,37.00
2019-02-21T11:15:21.176Z,32.50
2019-02-21T11:17:50.231Z,30.23
2019-02-21T11:20:19.393Z,32.30
2019-02-21T11:22:48.423Z,28.43
2019-02-21T11:25:17.463Z,28.50
2019-02-21T11:27:46.517Z,29.40
2019-02-21T11:30:16.665Z,28.17
2019-02-21T11:32:45.746Z,30.13
2019-02-21T11:35:14.917Z,30.80
2019-02-21T11:37:46.786Z,28.67
2019-02-21T11:40:15.255Z,29.53
2019-02-21T11:42:44.326Z,26.40
2019-02-21T11:45:14.870Z,26.63
2019-02-21T11:47:43.933Z,26.73
2019-02-21T11:50:14.330Z,25.43
2019-02-21T11:52:43.354Z,26.00
2019-02-21T11:55:13.651Z,21.93
2019-02-21T11:57:42.683Z,24.67
2019-02-21T12:00:15.045Z,20.00
2019-02-21T12:02:44.122Z,21.97
2019-02-21T12:05:17.416Z,21.60
2019-02-21T12:07:45.004Z,21.73
2019-02-21T12:10:14.156Z,19.60
2019-02-21T12:12:43.232Z,16.07
2019-02-21T12:15:12.334Z,17.73
2019-02-21T12:17:42.802Z,19.93
2019-02-21T12:20:12.761Z,19.90
2019-02-21T12:22:41.802Z,15.90
2019-02-21T12:25:12.224Z,18.63
2019-02-21T12:27:41.212Z,14.67
2019-02-21T12:30:12.414Z,18.93
2019-02-21T12:32:41.454Z,16.60
2019-02-21T12:35:10.448Z,16.80
2019-02-21T12:37:39.509Z,18.60
2019-02-21T12:40:10.335Z,17.63
2019-02-21T12:42:39.344Z,20.50
2019-02-21T12:45:10.781Z,22.57
2019-02-21T12:47:49.646Z,18.07
2019-02-21T12:50:10.626Z,18.50
2019-02-21T12:52:39.704Z,20.07
2019-02-21T12:55:09.257Z,13.20
2019-02-21T12:57:38.324Z,19.67
2019-02-21T13:00:10.885Z,16.70
2019-02-21T13:02:39.930Z,13.93
2019-02-21T13:05:09.106Z,15.47
2019-02-21T13:07:38.077Z,14.23
2019-02-21T13:10:09.603Z,14.13
2019-02-21T13:12:38.627Z,15.80
2019-02-21T13:15:08.765Z,15.27
2019-02-21T13:17:37.835Z,18.03
2019-02-21T13:20:07.424Z,17.33
2019-02-21T13:22:36.461Z,14.97
2019-02-21T13:25:24.677Z,18.50
2019-02-21T13:27:53.850Z,17.20
2019-02-21T13:30:22.895Z,18.43
2019-02-21T13:32:51.950Z,21.30
2019-02-21T13:35:20.926Z,23.07
2019-02-21T13:37:49.949Z,21.80
2019-02-21T13:40:21.174Z,18.27
2019-02-21T13:42:49.699Z,19.50
2019-02-21T13:45:18.745Z,23.90
2019-02-21T13:47:47.821Z,18.43
2019-02-21T13:50:17.112Z,25.20
2019-02-21T13:52:46.165Z,17.93
2019-02-21T13:55:34.294Z,19.97
2019-02-21T13:58:03.365Z,17.50
2019-02-21T14:00:32.403Z,23.40
2019-02-21T14:03:01.450Z,20.77
2019-02-21T14:05:30.464Z,21.87
2019-02-21T14:07:59.481Z,20.57
2019-02-21T14:10:28.527Z,19.87
2019-02-21T14:12:57.571Z,20.60
2019-02-21T14:15:26.752Z,22.03
2019-02-21T14:17:55.792Z,22.97
2019-02-21T14:20:24.811Z,24.43
2019-02-21T14:22:53.867Z,24.10
2019-02-21T14:25:22.893Z,21.50
2019-02-21T14:27:51.905Z,22.33
2019-02-21T14:30:21.037Z,23.07
2019-02-21T14:32:50.099Z,23.10
2019-02-21T14:35:19.131Z,23.63
2019-02-21T14:37:48.228Z,27.53
2019-02-21T14:40:17.378Z,26.03
2019-02-21T14:42:46.379Z,27.97
2019-02-21T14:45:16.705Z,25.97
2019-02-21T14:47:45.860Z,27.10
2019-02-21T14:50:15.779Z,25.83
2019-02-21T14:52:44.788Z,27.37
2019-02-21T14:55:14.051Z,25.97
2019-02-21T14:57:43.086Z,29.80
2019-02-21T15:00:15.954Z,26.93
2019-02-21T15:02:45.015Z,28.00
2019-02-21T15:05:14.021Z,27.43
2019-02-21T15:07:43.034Z,24.87
2019-02-21T15:10:12.100Z,23.77
2019-02-21T15:12:41.114Z,25.60
2019-02-21T15:15:11.462Z,29.23
2019-02-21T15:17:40.490Z,27.07
2019-02-21T15:20:10.854Z,25.47
2019-02-21T15:22:39.948Z,27.33
2019-02-21T15:25:09.096Z,29.63
2019-02-21T15:27:38.170Z,25.20
2019-02-21T15:30:08.909Z,28.40
2019-02-21T15:32:37.966Z,26.60
2019-02-21T15:35:07.076Z,29.17
2019-02-21T15:37:36.162Z,25.03
2019-02-21T15:40:05.675Z,24.50
2019-02-21T15:42:34.682Z,28.60
2019-02-21T15:45:03.782Z,30.10
2019-02-21T15:47:32.789Z,27.63
2019-02-21T15:50:01.805Z,29.87
2019-02-21T15:52:30.865Z,24.17
2019-02-21T15:55:11.474Z,27.47
2019-02-21T15:57:30.702Z,27.17
2019-02-21T15:59:59.808Z,23.73
2019-02-21T16:02:28.922Z,30.33
2019-02-21T16:04:57.955Z,27.03
2019-02-21T16:07:26.991Z,30.33
2019-02-21T16:09:55.981Z,29.93
2019-02-21T16:12:25.264Z,26.67
2019-02-21T16:14:54.505Z,24.77
2019-02-21T16:17:23.574Z,26.33
2019-02-21T16:19:52.622Z,24.80
2019-02-21T16:22:21.553Z,28.67
2019-02-21T16:24:50.575Z,27.57
2019-02-21T16:27:20.840Z,31.43
2019-02-21T16:29:49.919Z,28.10
2019-02-21T16:32:18.918Z,26.80
2019-02-21T16:34:47.919Z,23.83
2019-02-21T16:37:16.974Z,25.20
2019-02-21T16:39:45.987Z,26.67
2019-02-21T16:42:15.042Z,32.17
2019-02-21T16:44:44.114Z,31.33
2019-02-21T16:47:13.063Z,27.17
2019-02-21T16:49:42.077Z,28.63
2019-02-21T16:52:11.238Z,26.93
2019-02-21T16:54:40.373Z,31.67
2019-02-21T16:57:09.404Z,27.07
2019-02-21T16:59:38.445Z,32.80
2019-02-21T17:02:07.534Z,24.07
2019-02-21T17:04:36.712Z,29.77
2019-02-21T17:07:13.486Z,26.17
2019-02-21T17:09:36.437Z,27.00
2019-02-21T17:12:05.523Z,29.70
2019-02-21T17:14:34.520Z,32.20
2019-02-21T17:17:03.534Z,26.43
2019-02-21T17:19:32.566Z,30.93
2019-02-21T17:22:01.554Z,29.13
2019-02-21T17:24:30.617Z,29.10
2019-02-21T17:26:59.654Z,25.73
2019-02-21T17:29:29.021Z,29.27
2019-02-21T17:31:58.071Z,25.40
2019-02-21T17:34:27.044Z,26.33
2019-02-21T17:36:56.082Z,28.50
2019-02-21T17:42:06.867Z,26.47
2019-02-21T17:44:35.873Z,25.40
2019-02-21T17:47:04.884Z,27.77
2019-02-21T17:49:33.923Z,27.53
2019-02-21T17:52:02.959Z,26.30
2019-02-21T17:54:31.987Z,27.50
2019-02-21T17:57:01.066Z,28.23
2019-02-21T17:59:30.204Z,25.10
2019-02-21T18:01:59.335Z,25.07
2019-02-21T18:04:28.381Z,27.27
2019-02-21T18:06:57.336Z,24.60
2019-02-21T18:09:26.362Z,29.00
2019-02-21T18:11:55.421Z,27.00
2019-02-21T18:14:24.480Z,27.90
2019-02-21T18:16:53.446Z,25.93
2019-02-21T18:19:22.488Z,29.83
2019-02-21T18:21:51.567Z,22.10
2019-02-21T18:24:20.602Z,25.87
2019-02-21T18:26:49.662Z,21.30
2019-02-21T18:29:20.882Z,25.30
2019-02-21T18:31:49.527Z,22.97
2019-02-21T18:34:18.599Z,23.37
2019-02-21T18:36:47.678Z,27.03
2019-02-21T18:39:17.621Z,27.87
2019-02-21T18:41:46.643Z,27.80
2019-02-21T18:44:15.810Z,29.13
2019-02-21T18:46:44.800Z,24.90
2019-02-21T18:49:13.777Z,22.53
2019-02-21T18:51:42.913Z,29.10
2019-02-21T18:54:11.960Z,27.83
2019-02-21T18:56:41.075Z,23.87
2019-02-21T18:59:10.064Z,23.57
2019-02-21T19:01:39.249Z,23.43
2019-02-21T19:04:08.394Z,28.90
2019-02-21T19:06:37.570Z,26.93
2019-02-21T19:09:07.809Z,30.03
2019-02-21T19:11:36.933Z,23.00
2019-02-21T19:14:06.021Z,27.47
2019-02-21T19:16:35.070Z,28.20
2019-02-21T19:19:04.020Z,22.97
2019-02-21T19:21:33.131Z,25.60
2019-02-21T19:24:02.217Z,28.43
2019-02-21T19:26:31.296Z,24.90
2019-02-21T19:29:00.329Z,28.87
2019-02-21T19:31:29.422Z,26.73
2019-02-21T19:33:58.522Z,25.60
2019-02-21T19:36:27.645Z,28.67
2019-02-21T19:38:56.659Z,25.50
2019-02-21T19:41:25.690Z,24.37
2019-02-21T19:43:54.731Z,25.57
2019-02-21T19:46:23.786Z,25.40
2019-02-21T19:48:52.762Z,25.20
2019-02-21T19:51:22.226Z,28.17
2019-02-21T19:53:51.296Z,26.27
2019-02-21T19:56:20.375Z,28.93
2019-02-21T19:58:49.453Z,26.40
2019-02-21T20:01:18.595Z,24.77
2019-02-21T20:03:47.644Z,32.40
2019-02-21T20:06:16.749Z,27.43
2019-02-21T20:08:46.306Z,24.33
2019-02-21T20:11:15.317Z,27.20
2019-02-21T20:13:44.339Z,27.60
2019-02-21T20:16:13.362Z,27.17
2019-02-21T20:18:42.392Z,24.67
2019-02-21T20:21:11.529Z,29.80
2019-02-21T20:23:40.639Z,28.67
2019-02-21T20:26:17.961Z,29.50
2019-02-21T20:28:40.522Z,27.93
2019-02-21T20:31:09.510Z,28.27
2019-02-21T20:33:38.577Z,24.97
2019-02-21T20:36:07.649Z,26.43
2019-02-21T20:38:36.730Z,30.53
2019-02-21T20:41:05.710Z,28.93
2019-02-21T20:43:34.817Z,32.27
2019-02-21T20:46:03.887Z,26.43
2019-02-21T20:48:32.909Z,27.00
2019-02-21T20:51:01.982Z,26.30
2019-02-21T20:53:31.006Z,29.00
2019-02-21T20:56:00.067Z,25.17
2019-02-21T20:58:29.322Z,29.50
2019-02-21T21:00:58.461Z,30.63
2019-02-21T21:03:27.723Z,24.10
2019-02-21T21:05:56.999Z,25.60
2019-02-21T21:08:26.036Z,26.63
2019-02-21T21:10:55.310Z,30.17
2019-02-21T21:13:24.539Z,26.60
2019-02-21T21:15:53.627Z,27.93
2019-02-21T21:18:23.050Z,24.57
2019-02-21T21:20:52.095Z,30.27
2019-02-21T21:23:21.312Z,30.00
2019-02-21T21:25:50.486Z,28.33
2019-02-21T21:28:19.580Z,33.30
2019-02-21T21:30:48.634Z,26.50
2019-02-21T21:33:19.998Z,26.50
2019-02-21T21:35:49.281Z,31.47
2019-02-21T21:38:24.203Z,23.20
2019-02-21T21:40:50.425Z,30.70
2019-02-21T21:43:20.016Z,33.60
2019-02-21T21:45:49.101Z,23.37
2019-02-21T21:48:18.134Z,33.70
2019-02-21T21:50:47.114Z,32.40
2019-02-21T21:53:16.152Z,27.57
2019-02-21T21:55:45.176Z,27.90
2019-02-21T21:58:14.178Z,25.83
2019-02-21T22:00:43.964Z,34.20
2019-02-21T22:03:13.010Z,31.77
2019-02-21T22:05:42.027Z,30.70
2019-02-21T22:08:11.067Z,29.90
2019-02-21T22:10:40.098Z,25.73
2019-02-21T22:13:09.098Z,32.00
2019-02-21T22:15:38.088Z,27.33
2019-02-21T22:18:07.052Z,28.20
2019-02-21T22:20:36.195Z,26.20
2019-02-21T22:23:05.268Z,31.53
2019-02-21T22:25:34.283Z,28.40
2019-02-21T22:28:03.331Z,37.73
2019-02-21T22:30:51.514Z,32.57
2019-02-21T22:33:20.526Z,32.10
2019-02-21T22:35:49.613Z,28.83
2019-02-21T22:38:18.679Z,33.90
2019-02-21T22:40:49.323Z,29.63
2019-02-21T22:43:18.474Z,28.57
2019-02-21T22:45:47.509Z,26.97
2019-02-21T22:48:16.496Z,29.83
2019-02-21T22:50:45.587Z,30.40
2019-02-21T22:53:14.675Z,29.20
2019-02-21T22:55:43.702Z,27.67
2019-02-21T22:58:12.781Z,33.53
2019-02-21T23:01:02.332Z,30.30
2019-02-21T23:03:44.336Z,27.97
2019-02-21T23:06:29.924Z,32.60
2019-02-21T23:08:59.002Z,32.10
2019-02-21T23:11:28.150Z,33.80
2019-02-21T23:13:57.165Z,27.80
2019-02-21T23:16:27.328Z,34.10
2019-02-21T23:18:56.419Z,28.83
2019-02-21T23:21:25.382Z,34.00
2019-02-21T23:23:54.448Z,30.00
2019-02-21T23:26:23.512Z,35.43
2019-02-21T23:28:52.642Z,25.87
2019-02-21T23:31:21.671Z,33.00
2019-02-21T23:33:54.058Z,35.57
2019-02-21T23:36:23.131Z,28.17
2019-02-21T23:38:52.193Z,29.27
2019-02-21T23:41:21.278Z,32.47
2019-02-21T23:43:50.386Z,26.73
2019-02-21T23:46:20.355Z,29.80
2019-02-21T23:48:49.385Z,29.23
2019-02-21T23:51:18.421Z,34.83
2019-02-21T23:53:47.465Z,31.13
2019-02-21T23:56:16.506Z,29.50
2019-02-21T23:58:45.514Z,33.87
